createdAt,value
2024-02-26T00:04:42.989Z,1.00
2024-02-26T00:09:45.832Z,1.00
2024-02-26T00:14:50.667Z,1.00
2024-02-26T00:19:55.140Z,0.00
2024-02-26T00:24:57.978Z,0.80
2024-02-26T00:30:00.873Z,1.00
2024-02-26T00:35:05.454Z,1.00
2024-02-26T00:40:10.017Z,0.60
2024-02-26T00:45:12.865Z,1.00
2024-02-26T00:50:17.594Z,1.00
2024-02-26T00:55:20.439Z,0.60
2024-02-26T01:00:23.531Z,1.00
2024-02-26T01:05:27.793Z,1.00
2024-02-26T01:10:30.657Z,1.00
2024-02-26T01:15:33.448Z,1.00
2024-02-26T01:20:37.930Z,1.00
2024-02-26T01:25:41.062Z,1.00
2024-02-26T01:30:44.006Z,1.00
2024-02-26T01:35:48.676Z,1.40
2024-02-26T01:40:51.620Z,1.00
2024-02-26T01:45:54.774Z,1.00
2024-02-26T01:50:59.257Z,1.00
2024-02-26T01:56:02.406Z,1.00
2024-02-26T02:01:05.537Z,1.00
2024-02-26T02:06:09.833Z,1.00
2024-02-26T02:11:13.714Z,1.00
2024-02-26T02:16:16.586Z,1.00
2024-02-26T02:21:20.819Z,1.00
2024-02-26T02:26:23.781Z,0.20
2024-02-26T02:31:26.611Z,1.00
2024-02-26T02:36:30.877Z,1.00
2024-02-26T02:41:33.759Z,1.00
2024-02-26T02:46:36.555Z,1.00
2024-02-26T02:51:40.778Z,1.00
2024-02-26T02:56:43.663Z,1.80
2024-02-26T03:01:46.478Z,1.00
2024-02-26T03:06:50.721Z,0.40
2024-02-26T03:11:53.723Z,0.60
2024-02-26T03:16:56.935Z,1.00
2024-02-26T03:22:01.107Z,1.00
2024-02-26T03:27:06.095Z,1.00
2024-02-26T03:32:08.974Z,1.00
2024-02-26T03:37:13.214Z,1.00
2024-02-26T03:42:17.550Z,1.00
2024-02-26T03:47:20.418Z,1.00
2024-02-26T03:52:24.624Z,1.00
2024-02-26T04:04:25.291Z,0.00
2024-02-26T04:09:29.537Z,1.00
2024-02-26T04:14:32.376Z,1.00
2024-02-26T04:19:35.333Z,1.60
2024-02-26T04:24:39.758Z,1.00
2024-02-26T04:29:42.615Z,1.00
2024-02-26T04:34:45.412Z,2.00
2024-02-26T04:39:51.269Z,1.00
2024-02-26T04:44:54.265Z,1.20
2024-02-26T04:49:57.177Z,2.80
2024-02-26T04:55:01.549Z,1.20
2024-02-26T05:00:06.118Z,1.00
2024-02-26T05:05:10.205Z,2.20
2024-02-26T05:10:14.493Z,1.20
2024-02-26T05:15:19.639Z,1.40
2024-02-26T05:20:22.769Z,2.00
2024-02-26T05:25:27.023Z,1.80
2024-02-26T05:30:30.299Z,2.00
2024-02-26T05:35:33.178Z,1.20
2024-02-26T05:40:37.750Z,2.20
2024-02-26T05:45:40.816Z,2.00
2024-02-26T05:50:43.749Z,1.40
2024-02-26T05:55:47.979Z,2.80
2024-02-26T06:00:51.066Z,1.00
2024-02-26T06:05:54.138Z,2.80
2024-02-26T06:10:58.426Z,2.80
2024-02-26T06:16:01.219Z,1.20
2024-02-26T06:21:04.302Z,1.40
2024-02-26T06:26:08.540Z,2.80
2024-02-26T06:31:11.347Z,2.80
2024-02-26T06:36:14.185Z,1.20
2024-02-26T06:41:18.376Z,2.00
2024-02-26T06:46:21.220Z,1.60
2024-02-26T06:51:24.326Z,2.80
2024-02-26T06:56:29.416Z,1.00
2024-02-26T07:01:32.511Z,2.00
2024-02-26T07:06:35.404Z,2.80
2024-02-26T07:11:40.639Z,1.60
2024-02-26T07:16:43.456Z,1.00
2024-02-26T07:21:46.257Z,1.80
2024-02-26T07:26:50.510Z,1.00
2024-02-26T07:31:53.273Z,2.80
2024-02-26T07:36:56.120Z,2.20
2024-02-26T07:42:00.473Z,2.00
2024-02-26T07:47:04.022Z,2.00
2024-02-26T07:52:07.134Z,17.60
2024-02-26T07:57:11.360Z,17.40
2024-02-26T08:02:14.120Z,18.20
2024-02-26T08:07:17.951Z,20.25
2024-02-26T08:12:22.380Z,14.60
2024-02-26T08:17:25.358Z,13.80
2024-02-26T08:22:28.191Z,13.00
2024-02-26T08:27:32.415Z,12.00
2024-02-26T08:32:35.224Z,10.80
2024-02-26T08:37:38.056Z,10.80
2024-02-26T08:42:42.244Z,11.60
2024-02-26T08:47:46.874Z,11.00
2024-02-26T08:52:51.903Z,10.00
2024-02-26T08:57:56.122Z,10.60
2024-02-26T09:03:00.678Z,10.00
2024-02-26T09:08:05.244Z,11.00
2024-02-26T09:13:09.430Z,8.00
2024-02-26T09:18:12.407Z,9.60
2024-02-26T09:23:15.411Z,9.20
2024-02-26T09:28:19.563Z,10.00
2024-02-26T09:33:23.298Z,8.60
2024-02-26T09:38:26.345Z,10.00
2024-02-26T09:43:31.048Z,8.00
2024-02-26T09:48:34.812Z,7.80
2024-02-26T09:53:40.596Z,10.00
2024-02-26T09:58:46.744Z,7.60
2024-02-26T10:03:52.886Z,7.80
2024-02-26T10:08:56.630Z,9.60
2024-02-26T10:14:00.961Z,7.80
2024-02-26T10:19:03.985Z,7.00
2024-02-26T10:24:07.160Z,7.20
2024-02-26T10:29:11.358Z,7.80
2024-02-26T10:34:14.287Z,7.40
2024-02-26T10:39:17.331Z,8.20
2024-02-26T10:44:21.609Z,7.00
2024-02-26T10:49:25.004Z,7.60
2024-02-26T10:54:29.726Z,7.00
2024-02-26T10:59:34.011Z,7.20
2024-02-26T11:04:36.910Z,8.00
2024-02-26T11:09:44.672Z,7.60
2024-02-26T11:14:49.985Z,5.80
2024-02-26T11:19:54.829Z,7.00
2024-02-26T11:24:58.617Z,7.00
2024-02-26T11:30:03.558Z,7.60
2024-02-26T11:35:08.453Z,7.00
2024-02-26T11:40:13.816Z,7.80
2024-02-26T11:46:00.485Z,7.00
2024-02-26T11:51:04.052Z,7.00
2024-02-26T11:56:27.345Z,5.00
2024-02-26T12:01:43.446Z,8.40
2024-02-26T12:06:47.971Z,7.00
2024-02-26T12:11:51.036Z,7.00
2024-02-26T12:16:55.294Z,7.80
2024-02-26T12:21:58.283Z,7.00
2024-02-26T12:27:01.386Z,7.00
2024-02-26T12:32:08.304Z,7.00
2024-02-26T12:37:11.728Z,7.00
2024-02-26T12:42:14.572Z,5.00
2024-02-26T12:47:19.568Z,5.00
2024-02-26T12:52:22.937Z,5.40
2024-02-26T12:57:26.463Z,4.80
2024-02-26T13:02:31.495Z,5.40
2024-02-26T13:07:34.416Z,5.40
2024-02-26T13:12:37.475Z,14.00
2024-02-26T13:17:41.834Z,14.40
2024-02-26T13:22:44.741Z,12.60
2024-02-26T13:27:47.561Z,11.00
2024-02-26T13:32:51.813Z,10.80
2024-02-26T13:37:54.934Z,7.20
2024-02-26T13:42:59.041Z,8.00
2024-02-26T13:48:04.257Z,7.20
2024-02-26T13:53:07.295Z,7.00
2024-02-26T13:58:10.488Z,7.00
2024-02-26T14:03:14.745Z,7.00
2024-02-26T14:08:17.782Z,8.60
2024-02-26T14:13:20.681Z,7.00
2024-02-26T14:18:25.556Z,7.40
2024-02-26T14:23:28.850Z,6.80
2024-02-26T14:28:36.543Z,7.20
2024-02-26T14:33:41.780Z,7.00
2024-02-26T14:38:46.018Z,7.00
2024-02-26T14:43:48.831Z,5.80
2024-02-26T14:48:53.112Z,5.00
2024-02-26T14:53:56.223Z,5.00
2024-02-26T14:58:59.235Z,7.20
2024-02-26T15:04:05.103Z,7.00
2024-02-26T15:09:08.909Z,5.00
2024-02-26T15:14:11.831Z,5.00
2024-02-26T15:19:17.849Z,5.00
2024-02-26T15:24:21.046Z,8.00
2024-02-26T15:29:23.933Z,6.00
2024-02-26T15:34:28.188Z,5.40
2024-02-26T15:39:31.256Z,7.00
2024-02-26T15:44:34.071Z,5.60
2024-02-26T15:49:38.497Z,6.20
2024-02-26T15:54:41.721Z,5.80
2024-02-26T15:59:44.714Z,5.00
2024-02-26T16:04:49.369Z,5.00
2024-02-26T16:09:53.295Z,5.00
2024-02-26T16:14:57.031Z,7.00
2024-02-26T16:20:01.535Z,5.00
2024-02-26T16:25:05.012Z,6.40
2024-02-26T16:30:08.961Z,6.80
2024-02-26T16:35:13.259Z,5.80
2024-02-26T16:40:17.601Z,6.80
2024-02-26T16:45:21.771Z,4.80
2024-02-26T16:50:27.429Z,3.80
2024-02-26T16:55:30.501Z,6.00
2024-02-26T17:00:33.518Z,8.80
2024-02-26T17:05:37.812Z,6.00
2024-02-26T17:10:40.711Z,6.40
2024-02-26T17:15:43.505Z,8.00
2024-02-26T17:20:47.673Z,8.20
2024-02-26T17:25:50.737Z,10.80
2024-02-26T17:30:53.583Z,10.00
2024-02-26T17:35:57.838Z,10.40
2024-02-26T17:41:00.892Z,10.80
2024-02-26T17:46:03.829Z,7.80
2024-02-26T17:51:08.310Z,10.00
2024-02-26T17:56:11.389Z,10.00
2024-02-26T18:01:14.339Z,9.60
2024-02-26T18:06:18.645Z,8.40
2024-02-26T18:11:21.580Z,7.40
2024-02-26T18:16:24.626Z,9.40
2024-02-26T18:21:28.952Z,9.00
2024-02-26T18:26:31.816Z,8.60
2024-02-26T18:31:34.662Z,8.80
2024-02-26T18:36:38.950Z,7.00
2024-02-26T18:41:41.814Z,9.60
2024-02-26T18:46:46.505Z,8.80
2024-02-26T18:51:50.699Z,9.00
2024-02-26T18:56:53.600Z,9.00
2024-02-26T19:01:56.429Z,9.60
2024-02-26T19:07:00.641Z,7.20
2024-02-26T19:12:03.677Z,8.00
2024-02-26T19:17:06.692Z,9.40
2024-02-26T19:22:13.297Z,7.80
2024-02-26T19:27:17.175Z,7.20
2024-02-26T19:32:20.032Z,7.60
2024-02-26T19:44:22.531Z,7.00
2024-02-26T19:49:25.433Z,8.00
2024-02-26T19:54:28.346Z,10.80
2024-02-26T19:59:32.554Z,7.80
2024-02-26T20:04:35.930Z,10.80
2024-02-26T20:09:39.610Z,11.00
2024-02-26T20:14:45.812Z,11.00
2024-02-26T20:19:48.834Z,13.80
2024-02-26T20:24:51.762Z,20.50
2024-02-26T20:29:57.834Z,28.50
2024-02-26T20:35:00.794Z,32.00
2024-02-26T20:40:07.097Z,35.33
2024-02-26T20:45:11.754Z,42.25
2024-02-26T20:50:14.642Z,46.00
2024-02-26T20:55:17.444Z,49.75
2024-02-26T21:00:22.284Z,56.25
2024-02-26T21:05:25.270Z,63.00
2024-02-26T21:10:30.553Z,70.75
2024-02-26T21:15:34.834Z,77.00
2024-02-26T21:20:37.674Z,83.50
2024-02-26T21:25:40.541Z,87.00
2024-02-26T21:30:44.853Z,89.25
2024-02-26T21:35:47.775Z,89.50
2024-02-26T21:40:50.631Z,90.50
2024-02-26T21:45:54.773Z,89.75
2024-02-26T21:50:57.615Z,89.25
2024-02-26T21:56:00.813Z,88.50
2024-02-26T22:01:05.669Z,86.25
2024-02-26T22:06:10.463Z,84.50
2024-02-26T22:11:13.401Z,91.00
2024-02-26T22:16:17.742Z,84.25
2024-02-26T22:21:20.575Z,84.00
2024-02-26T22:26:23.468Z,85.25
2024-02-26T22:31:28.835Z,85.25
2024-02-26T22:36:33.820Z,81.25
2024-02-26T22:41:41.601Z,83.00
2024-02-26T22:46:45.824Z,83.75
2024-02-26T22:51:49.777Z,78.75
2024-02-26T22:56:52.607Z,80.25
2024-02-26T23:01:56.811Z,80.00
2024-02-26T23:07:00.343Z,79.00
2024-02-26T23:12:03.243Z,78.75
2024-02-26T23:17:07.516Z,78.50
2024-02-26T23:22:10.364Z,79.00
2024-02-26T23:27:13.202Z,78.50
2024-02-26T23:32:17.343Z,78.75
2024-02-26T23:37:20.077Z,77.75
2024-02-26T23:42:23.028Z,77.50
2024-02-26T23:47:28.234Z,73.00
2024-02-26T23:52:31.066Z,73.00
2024-02-26T23:57:34.013Z,74.25
